Terminal Aerodrome Forecast
Issued by NWS

Home | Current Version | Previous Version | Text Only | Print | Product List | Glossary On
Versions: 1 2 3 4 5 6 7 8 9 10 11 12
000
FTUS44 KOUN 210520
TAFLAW
TAF
KLAW 210520Z 2106/2206 13014KT P6SM OVC050
      TEMPO 2106/2109 4SM TSRA BR SCT015 OVC025CB
     FM210900 12013KT 5SM -TSRA BR OVC025CB
     FM211300 10012KT 4SM -TSRA BR OVC012CB
     FM212200 05012KT 6SM -RA BR OVC008=

USA.gov is the U.S. government's official web portal to all federal, state and local government web resources and services.